Pagrindinis puslapis
METAR-TAF:

METAR-TAF

Oro uostai :

Chapecó, Santa Katarina, Brazilija

platuma: 27-08-02S, ilguma: 052-39-43W, Aukštis: 654 m

Dabartinis oras

Ataskaita buvo paskelbta 8 valandos ir 18 minutes, ne 13:00 UTC
Vėjas 4 kt iš Rytų
Temperatūra 18°C
Drėgmė 73%
Slėgis 1021 hPa
Matomumas 10 km arba daugiau
Mažai debesys ne aukštis 1500 ft

METAR: SBCH 211300Z 09004KT 9999 FEW015 18/13 Q1021

Laikas: 18:18 (21:18 UTC)


TAF: trūkstamas

Orai ataskaitas ir orų prognozės (METAR, TAF).

turimą stotys yra geltonos ir raudonos taškus žemėlapyje.

Perkelti pele per norėdami pamatyti stoties vardą.

Tada spustelėkite, norėdami matyti oro stebėjimo ir prognozės.

Norėdami pakeisti žemėlapį: spustelėkite ant žalios mygtukų su juodo kryžiaus žemyn,; žalią mygtuką su brūkšneliu, jei norite nutolinti; arba žalių rodyklių gretimoms žemėlapius.


METAR-TAF: